sensor_id;sensor_type;location;lat;lon;timestamp;temperature;humidity
678;DHT22;321;48.814;9.132;2023-05-29T21:35:05;17.50;80.00
678;DHT22;321;48.814;9.132;2023-05-29T21:37:32;17.50;81.60
678;DHT22;321;48.814;9.132;2023-05-29T21:39:57;17.40;79.70
678;DHT22;321;48.814;9.132;2023-05-29T21:42:23;17.40;81.30
678;DHT22;321;48.814;9.132;2023-05-29T21:44:48;17.40;81.40
678;DHT22;321;48.814;9.132;2023-05-29T21:47:15;17.40;81.50
678;DHT22;321;48.814;9.132;2023-05-29T21:49:40;17.40;81.50
678;DHT22;321;48.814;9.132;2023-05-29T21:52:06;17.40;82.60
678;DHT22;321;48.814;9.132;2023-05-29T21:54:33;17.30;83.10
678;DHT22;321;48.814;9.132;2023-05-29T21:56:58;17.30;83.90
678;DHT22;321;48.814;9.132;2023-05-29T21:59:24;17.30;83.80
678;DHT22;321;48.814;9.132;2023-05-29T22:01:50;17.10;86.30
678;DHT22;321;48.814;9.132;2023-05-29T22:04:16;17.10;85.40
678;DHT22;321;48.814;9.132;2023-05-29T22:06:42;17.20;88.20
678;DHT22;321;48.814;9.132;2023-05-29T22:09:08;17.10;86.20
678;DHT22;321;48.814;9.132;2023-05-29T22:11:34;17.00;88.40
678;DHT22;321;48.814;9.132;2023-05-29T22:14:04;17.00;87.20
678;DHT22;321;48.814;9.132;2023-05-29T22:16:29;16.90;88.80
678;DHT22;321;48.814;9.132;2023-05-29T22:18:57;16.90;88.30
678;DHT22;321;48.814;9.132;2023-05-29T22:21:23;16.80;90.00
678;DHT22;321;48.814;9.132;2023-05-29T22:23:50;16.80;89.50
678;DHT22;321;48.814;9.132;2023-05-29T22:26:16;16.90;89.20
678;DHT22;321;48.814;9.132;2023-05-29T22:28:41;16.80;90.40
678;DHT22;321;48.814;9.132;2023-05-29T22:31:07;16.80;90.90
678;DHT22;321;48.814;9.132;2023-05-29T22:33:32;16.70;90.90
678;DHT22;321;48.814;9.132;2023-05-29T22:35:58;16.80;90.70
678;DHT22;321;48.814;9.132;2023-05-29T22:38:25;16.70;90.70
678;DHT22;321;48.814;9.132;2023-05-29T22:40:51;16.60;91.10
678;DHT22;321;48.814;9.132;2023-05-29T22:43:17;16.60;91.20
678;DHT22;321;48.814;9.132;2023-05-29T22:45:42;16.50;91.30
678;DHT22;321;48.814;9.132;2023-05-29T22:48:08;16.50;92.00
678;DHT22;321;48.814;9.132;2023-05-29T22:50:34;16.40;91.80
678;DHT22;321;48.814;9.132;2023-05-29T22:52:59;16.40;92.20
678;DHT22;321;48.814;9.132;2023-05-29T22:55:26;16.40;93.50
678;DHT22;321;48.814;9.132;2023-05-29T22:57:52;16.30;94.30
678;DHT22;321;48.814;9.132;2023-05-29T23:00:18;16.30;94.10
678;DHT22;321;48.814;9.132;2023-05-29T23:02:43;16.40;93.60
678;DHT22;321;48.814;9.132;2023-05-29T23:05:09;16.30;94.40
678;DHT22;321;48.814;9.132;2023-05-29T23:07:36;16.50;94.10
678;DHT22;321;48.814;9.132;2023-05-29T23:10:01;16.40;94.90
678;DHT22;321;48.814;9.132;2023-05-29T23:12:27;16.40;95.10
678;DHT22;321;48.814;9.132;2023-05-29T23:14:53;16.40;95.20
678;DHT22;321;48.814;9.132;2023-05-29T23:17:18;16.60;95.70
678;DHT22;321;48.814;9.132;2023-05-29T23:19:44;16.50;94.00
678;DHT22;321;48.814;9.132;2023-05-29T23:22:10;16.50;94.10
678;DHT22;321;48.814;9.132;2023-05-29T23:24:36;16.60;94.40
678;DHT22;321;48.814;9.132;2023-05-29T23:27:02;16.60;94.50
678;DHT22;321;48.814;9.132;2023-05-29T23:29:28;16.60;94.30
678;DHT22;321;48.814;9.132;2023-05-29T23:31:56;16.60;95.40
678;DHT22;321;48.814;9.132;2023-05-29T23:34:21;16.60;94.80
678;DHT22;321;48.814;9.132;2023-05-29T23:36:47;16.50;95.00
678;DHT22;321;48.814;9.132;2023-05-29T23:39:13;16.50;95.50
678;DHT22;321;48.814;9.132;2023-05-29T23:41:40;16.50;95.50
678;DHT22;321;48.814;9.132;2023-05-29T23:44:10;16.40;95.40
678;DHT22;321;48.814;9.132;2023-05-29T23:46:37;16.30;96.90
678;DHT22;321;48.814;9.132;2023-05-29T23:49:03;16.40;95.40
678;DHT22;321;48.814;9.132;2023-05-29T23:51:29;16.50;95.30
678;DHT22;321;48.814;9.132;2023-05-29T23:53:59;16.40;95.60
678;DHT22;321;48.814;9.132;2023-05-29T23:56:26;16.50;94.60
678;DHT22;321;48.814;9.132;2023-05-29T23:58:52;16.50;93.90
